createdAt,value
2018-05-24T00:01:07.533Z,28.00
2018-05-24T00:03:35.044Z,28.37
2018-05-24T00:06:03.331Z,27.00
2018-05-24T00:08:30.843Z,28.80
2018-05-24T00:10:58.366Z,28.50
2018-05-24T00:13:25.893Z,28.30
2018-05-24T00:15:54.169Z,27.13
2018-05-24T00:18:22.453Z,28.27
2018-05-24T00:20:50.733Z,28.30
2018-05-24T00:23:19.019Z,27.33
2018-05-24T00:25:46.533Z,28.67
2018-05-24T00:28:14.052Z,27.23
2018-05-24T00:30:41.558Z,28.23
2018-05-24T00:33:09.078Z,29.10
2018-05-24T00:35:36.594Z,27.80
2018-05-24T00:38:04.874Z,27.17
2018-05-24T00:40:33.157Z,28.00
2018-05-24T00:43:01.438Z,26.27
2018-05-24T00:45:28.961Z,28.57
2018-05-24T00:47:57.246Z,26.40
2018-05-24T00:50:25.533Z,26.93
2018-05-24T00:52:53.813Z,28.90
2018-05-24T00:55:33.833Z,26.73
2018-05-24T00:58:01.377Z,26.17
2018-05-24T01:00:28.897Z,27.57
2018-05-24T01:02:56.406Z,27.77
2018-05-24T01:05:24.527Z,27.07
2018-05-24T01:07:52.117Z,28.23
2018-05-24T01:10:19.651Z,26.87
2018-05-24T01:12:47.164Z,28.10
2018-05-24T01:15:14.690Z,26.93
2018-05-24T01:17:42.217Z,29.27
2018-05-24T01:20:10.493Z,28.00
2018-05-24T01:22:38.781Z,26.23
2018-05-24T01:25:06.301Z,26.70
2018-05-24T01:27:33.822Z,25.70
2018-05-24T01:30:01.343Z,26.47
2018-05-24T01:32:28.885Z,26.10
2018-05-24T01:34:56.413Z,25.30
2018-05-24T01:37:35.977Z,24.23
2018-05-24T01:40:04.381Z,25.13
2018-05-24T01:42:32.657Z,24.17
2018-05-24T01:45:00.935Z,26.70
2018-05-24T01:47:29.223Z,24.40
2018-05-24T01:49:56.734Z,24.27
2018-05-24T01:52:24.253Z,23.57
2018-05-24T01:54:51.766Z,25.07
2018-05-24T01:57:20.802Z,22.13
2018-05-24T01:59:48.319Z,22.33
2018-05-24T02:02:16.595Z,25.27
2018-05-24T02:04:44.887Z,23.70
2018-05-24T02:07:13.169Z,24.60
2018-05-24T02:09:41.443Z,23.23
2018-05-24T02:12:09.714Z,22.53
2018-05-24T02:14:38.001Z,21.50
2018-05-24T02:17:05.529Z,22.30
2018-05-24T02:19:35.322Z,22.53
2018-05-24T02:22:02.829Z,22.10
2018-05-24T02:24:31.113Z,23.33
2018-05-24T02:26:59.397Z,23.50
2018-05-24T02:29:26.919Z,23.60
2018-05-24T02:31:54.446Z,23.43
2018-05-24T02:34:21.985Z,22.23
2018-05-24T02:36:49.507Z,24.67
2018-05-24T02:39:17.794Z,24.53
2018-05-24T02:41:46.091Z,22.97
2018-05-24T02:44:13.608Z,23.33
2018-05-24T02:46:41.890Z,23.90
2018-05-24T03:02:07.863Z,26.57
2018-05-24T03:04:35.385Z,24.90
2018-05-24T03:07:03.672Z,24.57
2018-05-24T03:09:31.190Z,24.33
2018-05-24T03:11:58.702Z,24.73
2018-05-24T03:14:26.253Z,24.53
2018-05-24T03:16:54.510Z,28.10
2018-05-24T03:19:22.781Z,28.70
2018-05-24T03:21:51.065Z,26.07
2018-05-24T03:24:19.345Z,28.07
2018-05-24T03:26:46.861Z,27.17
2018-05-24T03:29:14.397Z,27.57
2018-05-24T03:31:41.914Z,26.47
2018-05-24T03:34:10.193Z,26.50
2018-05-24T03:36:38.477Z,27.33
2018-05-24T03:39:06.025Z,26.43
2018-05-24T03:41:34.308Z,28.40
2018-05-24T03:44:02.595Z,26.27
2018-05-24T03:46:32.017Z,28.40
2018-05-24T03:48:59.545Z,26.30
2018-05-24T03:51:27.817Z,24.37
2018-05-24T03:53:56.103Z,26.47
2018-05-24T03:56:23.630Z,27.53
2018-05-24T03:58:51.146Z,28.43
2018-05-24T04:01:30.468Z,25.73
2018-05-24T04:04:09.846Z,28.00
2018-05-24T04:06:37.368Z,27.00
2018-05-24T04:09:04.879Z,25.90
2018-05-24T04:11:32.596Z,28.10
2018-05-24T04:14:00.109Z,27.00
2018-05-24T04:16:28.437Z,25.43
2018-05-24T04:18:55.944Z,23.97
2018-05-24T04:21:24.225Z,25.30
2018-05-24T04:23:52.514Z,26.90
2018-05-24T04:26:20.827Z,25.70
2018-05-24T04:28:48.335Z,26.80
2018-05-24T04:31:16.614Z,27.20
2018-05-24T04:33:44.914Z,26.47
2018-05-24T04:36:12.461Z,27.20
2018-05-24T04:38:40.741Z,27.20
2018-05-24T04:41:09.029Z,27.23
2018-05-24T04:43:36.677Z,29.03
2018-05-24T04:46:04.983Z,28.50
2018-05-24T04:48:32.493Z,30.13
2018-05-24T04:51:00.077Z,29.73
2018-05-24T04:53:28.358Z,28.77
2018-05-24T04:55:55.885Z,27.53
2018-05-24T04:58:23.394Z,25.87
2018-05-24T05:00:50.913Z,28.13
2018-05-24T05:03:19.200Z,26.87
2018-05-24T05:05:47.481Z,26.10
2018-05-24T05:08:15.761Z,26.57
2018-05-24T05:10:44.046Z,24.37
2018-05-24T05:13:11.549Z,26.10
2018-05-24T05:15:39.072Z,24.60
2018-05-24T05:18:06.585Z,23.80
2018-05-24T05:20:34.873Z,26.23
2018-05-24T05:23:03.220Z,22.07
2018-05-24T05:25:31.449Z,25.03
2018-05-24T05:27:58.962Z,25.67
2018-05-24T05:30:26.501Z,25.03
2018-05-24T05:32:54.014Z,24.60
2018-05-24T05:35:21.545Z,25.80
2018-05-24T05:37:49.060Z,24.03
2018-05-24T05:40:16.586Z,24.43
2018-05-24T05:42:44.870Z,22.53
2018-05-24T05:45:13.149Z,44.40
2018-05-24T05:47:41.443Z,23.50
2018-05-24T05:50:08.970Z,23.80
2018-05-24T05:52:37.261Z,23.63
2018-05-24T05:55:05.541Z,24.63
2018-05-24T05:57:33.157Z,42.27
2018-05-24T06:00:00.678Z,23.27
2018-05-24T06:02:28.186Z,23.03
2018-05-24T06:04:55.730Z,40.07
2018-05-24T06:07:23.251Z,22.97
2018-05-24T06:09:50.774Z,25.57
2018-05-24T06:12:19.070Z,22.40
2018-05-24T06:14:47.341Z,20.77
2018-05-24T06:17:15.618Z,21.40
2018-05-24T06:19:43.901Z,20.73
2018-05-24T06:22:12.196Z,19.00
2018-05-24T06:24:39.706Z,19.63
2018-05-24T06:27:07.264Z,18.07
2018-05-24T06:29:34.773Z,18.47
2018-05-24T06:32:02.285Z,18.60
2018-05-24T06:34:29.818Z,20.63
2018-05-24T06:36:57.350Z,18.47
2018-05-24T06:39:24.877Z,17.50
2018-05-24T06:41:53.204Z,18.70
2018-05-24T06:44:20.694Z,17.17
2018-05-24T06:46:48.218Z,18.27
2018-05-24T06:49:15.743Z,19.37
2018-05-24T06:51:44.014Z,40.53
2018-05-24T06:54:12.295Z,18.13
2018-05-24T06:56:40.570Z,18.13
2018-05-24T06:59:08.846Z,19.90
2018-05-24T07:01:37.169Z,19.00
2018-05-24T07:04:04.714Z,19.17
2018-05-24T07:06:32.254Z,18.90
2018-05-24T07:08:59.773Z,19.60
2018-05-24T07:11:27.301Z,27.50
2018-05-24T07:13:54.813Z,17.97
2018-05-24T07:16:23.085Z,18.90
2018-05-24T07:18:51.392Z,18.97
2018-05-24T07:21:18.913Z,17.43
2018-05-24T07:23:47.190Z,16.73
2018-05-24T07:26:15.479Z,18.80
2018-05-24T07:28:43.770Z,18.30
2018-05-24T07:31:11.282Z,18.10
2018-05-24T07:33:38.821Z,18.90
2018-05-24T07:36:06.329Z,16.87
2018-05-24T07:38:34.609Z,17.77
2018-05-24T07:41:02.910Z,15.70
2018-05-24T07:43:30.422Z,17.23
2018-05-24T07:45:57.933Z,20.97
2018-05-24T07:48:25.453Z,24.77
2018-05-24T07:50:53.732Z,37.10
2018-05-24T07:53:22.013Z,39.90
2018-05-24T07:55:50.293Z,39.10
2018-05-24T07:58:18.580Z,28.63
2018-05-24T08:00:46.090Z,18.67
2018-05-24T08:03:13.625Z,18.93
2018-05-24T08:05:41.150Z,19.50
2018-05-24T08:08:09.446Z,19.47
2018-05-24T08:10:36.969Z,19.73
2018-05-24T08:13:05.245Z,18.40
2018-05-24T08:15:33.525Z,16.70
2018-05-24T08:18:01.814Z,18.50
2018-05-24T08:20:29.334Z,17.13
2018-05-24T08:22:56.851Z,19.60
2018-05-24T08:25:24.372Z,16.97
2018-05-24T08:27:51.889Z,18.10
2018-05-24T08:30:19.405Z,17.03
2018-05-24T08:32:47.695Z,19.00
2018-05-24T08:35:15.256Z,17.53
2018-05-24T08:37:43.514Z,18.77
2018-05-24T08:40:11.801Z,18.23
2018-05-24T08:42:39.314Z,18.33
2018-05-24T08:45:06.841Z,17.40
2018-05-24T08:47:34.345Z,17.40
2018-05-24T08:50:01.864Z,18.20
2018-05-24T08:52:29.389Z,17.97
2018-05-24T08:54:57.814Z,16.70
2018-05-24T08:57:26.866Z,16.70
2018-05-24T08:59:55.153Z,17.40
2018-05-24T09:02:22.674Z,18.30
2018-05-24T09:04:50.189Z,18.00
2018-05-24T09:07:18.124Z,19.13
2018-05-24T09:09:46.410Z,17.83
2018-05-24T09:12:14.197Z,17.00
2018-05-24T09:14:41.717Z,16.77
2018-05-24T09:17:09.994Z,15.70
2018-05-24T09:19:38.281Z,15.53
2018-05-24T09:22:06.561Z,15.17
2018-05-24T09:24:34.093Z,15.33
2018-05-24T09:27:01.605Z,16.47
2018-05-24T09:29:33.393Z,16.60
2018-05-24T09:32:00.913Z,17.10
2018-05-24T09:34:28.430Z,17.80
2018-05-24T09:36:55.953Z,16.30
2018-05-24T09:39:23.469Z,15.83
2018-05-24T09:41:51.742Z,17.20
2018-05-24T09:44:20.035Z,14.60
2018-05-24T09:46:47.549Z,15.07
2018-05-24T09:49:15.369Z,14.47
2018-05-24T09:51:43.680Z,15.10
2018-05-24T09:54:11.614Z,14.43
2018-05-24T09:56:39.481Z,14.80
2018-05-24T09:59:07.348Z,14.57
2018-05-24T10:01:35.114Z,15.53
2018-05-24T10:04:02.980Z,20.37
2018-05-24T10:06:30.846Z,16.20
2018-05-24T10:08:58.712Z,15.20
2018-05-24T10:11:26.477Z,13.20
2018-05-24T10:13:54.277Z,14.30
2018-05-24T10:16:23.031Z,13.23
2018-05-24T10:18:51.614Z,14.10
2018-05-24T10:21:19.480Z,12.93
2018-05-24T10:23:47.383Z,13.57
2018-05-24T10:26:15.214Z,14.10
2018-05-24T10:28:43.082Z,15.40
2018-05-24T10:31:10.947Z,18.83
2018-05-24T10:33:38.711Z,14.43
2018-05-24T10:36:06.513Z,12.70
2018-05-24T10:38:34.448Z,14.20
2018-05-24T10:41:02.215Z,11.60
2018-05-24T10:43:30.017Z,10.03
2018-05-24T10:45:58.661Z,14.53
2018-05-24T10:48:26.435Z,12.27
2018-05-24T10:50:54.004Z,12.00
2018-05-24T10:53:21.485Z,11.70
2018-05-24T10:55:48.999Z,14.13
2018-05-24T10:58:16.533Z,11.10
2018-05-24T11:00:44.813Z,10.33
2018-05-24T11:03:13.114Z,10.63
2018-05-24T11:05:40.613Z,10.20
2018-05-24T11:08:08.137Z,11.03
2018-05-24T11:10:35.653Z,10.77
2018-05-24T11:13:04.276Z,13.23
2018-05-24T11:15:32.047Z,10.27
2018-05-24T11:17:59.746Z,10.43
2018-05-24T11:20:28.289Z,10.90
2018-05-24T11:22:56.153Z,23.90
2018-05-24T11:25:23.917Z,12.77
2018-05-24T11:27:51.716Z,16.13
2018-05-24T11:30:19.549Z,11.83
2018-05-24T11:32:47.313Z,11.43
2018-05-24T11:35:15.180Z,37.50
2018-05-24T11:37:42.984Z,20.77
2018-05-24T11:40:11.528Z,13.00
2018-05-24T11:42:39.100Z,13.20
2018-05-24T11:45:06.854Z,13.50
2018-05-24T11:47:34.654Z,13.80
2018-05-24T11:50:03.025Z,13.70
2018-05-24T11:52:30.862Z,13.40
2018-05-24T11:54:58.661Z,14.67
2018-05-24T11:57:26.412Z,13.83
2018-05-24T11:59:54.257Z,15.30
2018-05-24T12:02:22.126Z,15.50
2018-05-24T12:04:49.889Z,13.50
2018-05-24T12:07:17.878Z,16.63
2018-05-24T12:09:45.738Z,17.07
2018-05-24T12:12:14.417Z,15.20
2018-05-24T12:14:42.221Z,16.77
2018-05-24T12:17:10.861Z,14.40
2018-05-24T12:19:38.605Z,14.27
2018-05-24T12:22:06.427Z,12.77
2018-05-24T12:24:34.257Z,50.50
2018-05-24T12:27:02.061Z,14.13
2018-05-24T12:29:29.744Z,14.30
2018-05-24T12:31:58.371Z,13.27
2018-05-24T12:34:26.238Z,14.13
2018-05-24T12:36:54.025Z,13.90
2018-05-24T12:39:21.765Z,14.37
2018-05-24T12:41:49.603Z,13.23
2018-05-24T12:44:17.430Z,13.20
2018-05-24T12:46:45.367Z,13.30
2018-05-24T12:49:13.281Z,12.50
2018-05-24T12:51:42.022Z,12.80
2018-05-24T12:54:09.890Z,12.37
2018-05-24T12:56:37.756Z,13.23
2018-05-24T12:59:05.622Z,14.30
2018-05-24T13:01:33.427Z,14.53
2018-05-24T13:04:02.073Z,15.13
2018-05-24T13:06:29.940Z,14.97
2018-05-24T13:08:57.728Z,15.90
2018-05-24T13:11:25.673Z,16.87
2018-05-24T13:13:53.482Z,16.80
2018-05-24T13:16:22.431Z,17.77
2018-05-24T13:18:50.417Z,17.27
2018-05-24T13:21:19.593Z,17.33
2018-05-24T13:23:48.665Z,18.70
2018-05-24T13:26:16.561Z,19.33
2018-05-24T13:28:44.327Z,20.77
2018-05-24T13:31:12.128Z,26.50
2018-05-24T13:33:39.957Z,21.37
2018-05-24T13:36:07.825Z,11.90
2018-05-24T13:38:35.691Z,14.50
2018-05-24T13:41:03.664Z,15.53
2018-05-24T13:43:32.756Z,18.53
2018-05-24T13:46:00.623Z,13.00
2018-05-24T13:48:28.389Z,12.70
2018-05-24T13:50:56.109Z,13.83
2018-05-24T13:53:24.650Z,15.60
2018-05-24T13:55:52.602Z,16.50
2018-05-24T13:58:20.470Z,16.17
2018-05-24T14:00:49.193Z,17.07
2018-05-24T14:03:17.124Z,17.40
2018-05-24T14:05:44.991Z,18.23
2018-05-24T14:08:12.756Z,19.47
2018-05-24T14:10:40.521Z,19.20
2018-05-24T14:13:08.285Z,22.97
2018-05-24T14:15:36.151Z,22.67
2018-05-24T14:18:04.019Z,19.83
2018-05-24T14:20:31.749Z,21.43
2018-05-24T14:22:59.548Z,20.30
2018-05-24T14:25:27.343Z,26.53
2018-05-24T14:27:55.179Z,20.83
2018-05-24T14:30:22.944Z,21.43
2018-05-24T14:32:50.660Z,22.20
2018-05-24T14:35:19.122Z,26.63
2018-05-24T14:37:46.737Z,27.03
2018-05-24T14:40:14.549Z,22.50
2018-05-24T14:42:42.277Z,22.43
2018-05-24T14:45:10.004Z,22.37
2018-05-24T14:47:37.686Z,21.40
2018-05-24T14:50:05.571Z,20.73
2018-05-24T14:52:33.438Z,20.60
2018-05-24T14:55:01.226Z,22.87
2018-05-24T14:57:29.112Z,22.97
2018-05-24T14:59:56.855Z,21.20
2018-05-24T15:02:24.700Z,21.40
2018-05-24T15:04:52.379Z,20.90
2018-05-24T15:07:20.332Z,20.33
2018-05-24T15:09:48.141Z,18.57
2018-05-24T15:12:16.784Z,19.90
2018-05-24T15:14:44.649Z,19.60
2018-05-24T15:17:12.516Z,18.77
2018-05-24T15:19:40.307Z,18.03
2018-05-24T15:22:08.147Z,16.07
2018-05-24T15:24:35.898Z,20.37
2018-05-24T15:27:03.779Z,19.73
2018-05-24T15:29:31.534Z,14.83
2018-05-24T15:31:59.347Z,16.57
2018-05-24T15:34:27.930Z,19.73
2018-05-24T15:36:55.687Z,17.50
2018-05-24T15:39:23.420Z,16.63
2018-05-24T15:41:51.185Z,15.23
2018-05-24T15:44:18.913Z,15.50
2018-05-24T15:46:46.714Z,15.50
2018-05-24T15:49:14.581Z,15.00
2018-05-24T15:51:42.310Z,16.43
2018-05-24T15:54:10.340Z,20.20
2018-05-24T15:56:38.287Z,18.83
2018-05-24T15:59:06.151Z,15.10
2018-05-24T16:01:33.918Z,15.00
2018-05-24T16:04:01.782Z,17.20
2018-05-24T16:06:29.575Z,16.63
2018-05-24T16:08:57.413Z,15.63
2018-05-24T16:11:25.280Z,16.77
2018-05-24T16:13:53.147Z,16.57
2018-05-24T16:16:20.937Z,15.17
2018-05-24T16:18:48.881Z,15.60
2018-05-24T16:21:16.647Z,14.67
2018-05-24T16:23:44.512Z,14.67
2018-05-24T16:26:12.381Z,15.80
2018-05-24T16:28:40.144Z,14.97
2018-05-24T16:31:08.013Z,15.13
2018-05-24T16:33:35.877Z,12.10
2018-05-24T16:36:03.644Z,11.70
2018-05-24T16:38:31.511Z,13.33
2018-05-24T16:40:59.138Z,12.17
2018-05-24T16:43:27.439Z,15.87
2018-05-24T16:45:54.981Z,12.60
2018-05-24T16:48:23.257Z,13.07
2018-05-24T16:50:51.537Z,16.87
2018-05-24T16:53:19.835Z,13.90
2018-05-24T16:55:47.342Z,15.67
2018-05-24T16:58:14.854Z,15.23
2018-05-24T17:00:42.373Z,14.93
2018-05-24T17:03:10.662Z,17.00
2018-05-24T17:05:38.941Z,17.03
2018-05-24T17:08:07.222Z,18.00
2018-05-24T17:10:35.493Z,18.80
2018-05-24T17:13:03.778Z,17.73
2018-05-24T17:15:32.074Z,21.37
2018-05-24T17:17:59.593Z,21.20
2018-05-24T17:20:27.165Z,20.10
2018-05-24T17:22:55.462Z,22.73
2018-05-24T17:25:25.418Z,23.10
2018-05-24T17:27:52.921Z,25.37
2018-05-24T17:30:21.201Z,21.33
2018-05-24T17:32:48.721Z,21.30
2018-05-24T17:35:16.237Z,18.47
2018-05-24T17:37:43.749Z,19.90
2018-05-24T17:40:11.266Z,20.00
2018-05-24T17:42:38.797Z,18.87
2018-05-24T17:45:06.345Z,19.70
2018-05-24T17:47:34.618Z,17.97
2018-05-24T17:50:02.914Z,18.97
2018-05-24T17:52:30.433Z,21.77
2018-05-24T17:54:58.017Z,26.70
2018-05-24T17:57:26.326Z,20.13
2018-05-24T17:59:53.842Z,21.80
2018-05-24T18:02:22.129Z,22.17
2018-05-24T18:04:50.402Z,20.77
2018-05-24T18:07:18.686Z,21.93
2018-05-24T18:09:46.972Z,19.63
2018-05-24T18:12:14.489Z,20.20
2018-05-24T18:14:43.497Z,19.90
2018-05-24T18:17:11.018Z,22.37
2018-05-24T18:19:38.533Z,19.33
2018-05-24T18:22:06.819Z,19.27
2018-05-24T18:24:34.346Z,19.77
2018-05-24T18:27:01.863Z,27.27
2018-05-24T18:29:29.385Z,23.90
2018-05-24T18:31:57.661Z,23.40
2018-05-24T18:34:25.943Z,20.77
2018-05-24T18:36:54.221Z,18.83
2018-05-24T18:39:21.774Z,18.83
2018-05-24T18:41:50.146Z,20.77
2018-05-24T18:44:18.425Z,19.43
2018-05-24T18:46:46.702Z,20.80
2018-05-24T18:49:14.973Z,23.70
2018-05-24T18:51:43.245Z,30.00
2018-05-24T18:54:11.540Z,32.00
2018-05-24T18:56:39.812Z,26.37
2018-05-24T18:59:08.089Z,24.30
2018-05-24T19:01:36.377Z,21.93
2018-05-24T19:04:03.893Z,24.37
2018-05-24T19:06:32.934Z,22.60
2018-05-24T19:09:00.457Z,23.47
2018-05-24T19:11:27.981Z,24.47
2018-05-24T19:13:55.509Z,23.80
2018-05-24T19:16:23.046Z,23.80
2018-05-24T19:18:51.329Z,22.70
2018-05-24T19:21:19.642Z,24.27
2018-05-24T19:23:47.151Z,24.03
2018-05-24T19:26:14.678Z,26.37
2018-05-24T19:28:42.195Z,23.37
2018-05-24T19:31:09.705Z,24.30
2018-05-24T19:33:37.237Z,24.93
2018-05-24T19:36:04.767Z,24.03
2018-05-24T19:38:32.305Z,22.93
2018-05-24T19:41:00.589Z,23.60
2018-05-24T19:43:28.868Z,23.87
2018-05-24T19:45:57.172Z,24.70
2018-05-24T19:48:24.693Z,24.70
2018-05-24T19:50:52.221Z,23.97
2018-05-24T19:53:19.752Z,23.03
2018-05-24T19:55:47.291Z,24.50
2018-05-24T19:58:15.563Z,23.57
2018-05-24T20:00:43.862Z,24.63
2018-05-24T20:03:11.388Z,24.97
2018-05-24T20:05:39.681Z,24.30
2018-05-24T20:08:07.973Z,24.83
2018-05-24T20:10:35.493Z,24.13
2018-05-24T20:13:03.036Z,26.30
2018-05-24T20:15:30.541Z,24.40
2018-05-24T20:17:58.065Z,26.20
2018-05-24T20:20:25.577Z,25.57
2018-05-24T20:22:53.147Z,26.03
2018-05-24T20:25:20.658Z,27.50
2018-05-24T20:27:49.000Z,24.90
2018-05-24T20:30:16.531Z,25.93
2018-05-24T20:32:44.100Z,27.03
2018-05-24T20:35:12.439Z,26.43
2018-05-24T20:37:39.976Z,27.43
2018-05-24T20:40:07.490Z,27.50
2018-05-24T20:42:35.009Z,28.20
2018-05-24T20:45:03.294Z,27.20
2018-05-24T20:47:31.589Z,28.33
2018-05-24T20:49:59.125Z,27.40
2018-05-24T20:52:27.401Z,28.57
2018-05-24T20:54:55.689Z,31.27
2018-05-24T20:57:23.966Z,30.33
2018-05-24T20:59:51.477Z,29.90
2018-05-24T21:02:19.001Z,29.53
2018-05-24T21:04:46.517Z,27.47
2018-05-24T21:07:14.805Z,25.63
2018-05-24T21:09:43.101Z,26.97
2018-05-24T21:12:10.642Z,28.37
2018-05-24T21:14:38.926Z,29.83
2018-05-24T21:17:07.205Z,29.10
2018-05-24T21:19:34.721Z,29.00
2018-05-24T21:22:02.242Z,29.13
2018-05-24T21:24:29.753Z,27.30
2018-05-24T21:26:57.281Z,26.60
2018-05-24T21:29:24.797Z,27.67
2018-05-24T21:31:53.077Z,25.83
2018-05-24T21:34:20.601Z,26.83
2018-05-24T21:36:48.885Z,26.40
2018-05-24T21:39:16.402Z,27.70
2018-05-24T21:41:43.919Z,27.93
2018-05-24T21:44:12.201Z,28.47
2018-05-24T21:46:40.473Z,25.77
2018-05-24T21:49:08.758Z,27.73
2018-05-24T21:51:37.109Z,27.90
2018-05-24T21:54:04.631Z,27.63
2018-05-24T21:56:32.153Z,26.43
2018-05-24T21:59:00.433Z,26.30
2018-05-24T22:01:27.986Z,27.37
2018-05-24T22:03:56.269Z,25.37
2018-05-24T22:06:23.787Z,25.43
2018-05-24T22:08:53.177Z,25.23
2018-05-24T22:11:22.959Z,26.83
2018-05-24T22:13:50.928Z,26.00
2018-05-24T22:16:18.798Z,25.93
2018-05-24T22:18:46.768Z,27.67
2018-05-24T22:21:14.631Z,27.40
2018-05-24T22:23:42.499Z,29.03
2018-05-24T22:26:10.405Z,26.93
2018-05-24T22:28:38.334Z,29.10
2018-05-24T22:31:05.993Z,27.27
2018-05-24T22:33:33.710Z,30.33
2018-05-24T22:36:02.279Z,24.53
2018-05-24T22:38:30.109Z,23.57
2018-05-24T22:40:57.912Z,22.27
2018-05-24T22:43:26.559Z,21.93
2018-05-24T22:45:54.425Z,21.37
2018-05-24T22:48:22.180Z,20.30
2018-05-24T22:50:49.988Z,20.90
2018-05-24T22:53:18.641Z,20.40
2018-05-24T22:55:46.508Z,20.73
2018-05-24T22:58:14.312Z,20.53
2018-05-24T23:00:42.242Z,21.57
2018-05-24T23:03:10.047Z,20.83
2018-05-24T23:05:38.692Z,21.70
2018-05-24T23:08:06.662Z,21.50
2018-05-24T23:10:34.529Z,22.40
2018-05-24T23:13:02.396Z,21.93
2018-05-24T23:15:30.162Z,22.97
2018-05-24T23:17:58.027Z,24.13
2018-05-24T23:20:25.996Z,23.77
2018-05-24T23:22:53.862Z,22.17
2018-05-24T23:25:21.730Z,23.70
2018-05-24T23:27:49.524Z,21.30
2018-05-24T23:30:17.362Z,22.30
2018-05-24T23:32:45.126Z,19.67
2018-05-24T23:35:12.992Z,20.77
2018-05-24T23:37:40.814Z,21.90
2018-05-24T23:40:09.443Z,21.40
2018-05-24T23:42:37.209Z,22.07
2018-05-24T23:45:05.076Z,21.77
2018-05-24T23:47:32.972Z,23.00
2018-05-24T23:50:01.629Z,20.90
2018-05-24T23:52:29.422Z,20.40
2018-05-24T23:54:57.259Z,21.07
2018-05-24T23:57:25.126Z,22.60
2018-05-24T23:59:52.992Z,21.73
